sensor_id;sensor_type;location;lat;lon;timestamp;P1;durP1;ratioP1;P2;durP2;ratioP2
18076;SDS011;9165;45.714;11.362;2024-02-21T00:01:48;27.03;;;15.40;;
18076;SDS011;9165;45.714;11.362;2024-02-21T00:04:15;22.03;;;12.83;;
18076;SDS011;9165;45.714;11.362;2024-02-21T00:06:43;18.10;;;10.77;;
18076;SDS011;9165;45.714;11.362;2024-02-21T00:09:10;14.83;;;9.93;;
18076;SDS011;9165;45.714;11.362;2024-02-21T00:11:37;17.50;;;10.67;;
18076;SDS011;9165;45.714;11.362;2024-02-21T00:14:05;15.73;;;9.80;;
18076;SDS011;9165;45.714;11.362;2024-02-21T00:16:31;19.77;;;11.57;;
18076;SDS011;9165;45.714;11.362;2024-02-21T00:18:58;20.43;;;11.50;;
18076;SDS011;9165;45.714;11.362;2024-02-21T00:21:25;19.77;;;11.97;;
18076;SDS011;9165;45.714;11.362;2024-02-21T00:23:51;17.10;;;10.10;;
18076;SDS011;9165;45.714;11.362;2024-02-21T00:26:18;21.17;;;12.70;;
18076;SDS011;9165;45.714;11.362;2024-02-21T00:28:45;15.93;;;10.47;;
18076;SDS011;9165;45.714;11.362;2024-02-21T00:31:13;18.23;;;10.63;;
18076;SDS011;9165;45.714;11.362;2024-02-21T00:33:40;16.57;;;10.30;;
18076;SDS011;9165;45.714;11.362;2024-02-21T00:36:07;15.43;;;9.80;;
18076;SDS011;9165;45.714;11.362;2024-02-21T00:38:33;16.00;;;9.83;;
18076;SDS011;9165;45.714;11.362;2024-02-21T00:41:00;13.67;;;8.17;;
18076;SDS011;9165;45.714;11.362;2024-02-21T00:43:26;17.63;;;9.40;;
18076;SDS011;9165;45.714;11.362;2024-02-21T00:45:53;13.13;;;7.70;;
18076;SDS011;9165;45.714;11.362;2024-02-21T00:48:21;17.63;;;9.40;;
18076;SDS011;9165;45.714;11.362;2024-02-21T00:50:47;16.43;;;9.27;;
18076;SDS011;9165;45.714;11.362;2024-02-21T00:53:14;20.17;;;9.87;;
18076;SDS011;9165;45.714;11.362;2024-02-21T00:55:41;14.73;;;9.03;;
18076;SDS011;9165;45.714;11.362;2024-02-21T00:58:08;15.77;;;9.30;;
18076;SDS011;9165;45.714;11.362;2024-02-21T01:00:35;14.03;;;8.37;;
18076;SDS011;9165;45.714;11.362;2024-02-21T01:03:02;14.47;;;8.33;;
18076;SDS011;9165;45.714;11.362;2024-02-21T01:05:30;18.73;;;9.50;;
18076;SDS011;9165;45.714;11.362;2024-02-21T01:07:57;16.97;;;9.77;;
18076;SDS011;9165;45.714;11.362;2024-02-21T01:10:23;16.73;;;8.13;;
18076;SDS011;9165;45.714;11.362;2024-02-21T01:12:50;13.60;;;8.23;;
18076;SDS011;9165;45.714;11.362;2024-02-21T01:15:17;12.80;;;8.43;;
18076;SDS011;9165;45.714;11.362;2024-02-21T01:17:43;14.80;;;9.10;;
18076;SDS011;9165;45.714;11.362;2024-02-21T01:20:10;13.93;;;8.40;;
18076;SDS011;9165;45.714;11.362;2024-02-21T01:22:38;15.20;;;9.20;;
18076;SDS011;9165;45.714;11.362;2024-02-21T01:25:05;13.80;;;8.77;;
18076;SDS011;9165;45.714;11.362;2024-02-21T01:27:32;16.20;;;9.70;;
18076;SDS011;9165;45.714;11.362;2024-02-21T01:29:58;17.43;;;9.50;;
18076;SDS011;9165;45.714;11.362;2024-02-21T01:32:25;15.63;;;10.13;;
18076;SDS011;9165;45.714;11.362;2024-02-21T01:34:51;14.67;;;9.47;;
18076;SDS011;9165;45.714;11.362;2024-02-21T01:37:18;18.47;;;10.17;;
18076;SDS011;9165;45.714;11.362;2024-02-21T01:39:46;18.07;;;10.37;;
18076;SDS011;9165;45.714;11.362;2024-02-21T01:42:14;15.10;;;9.27;;
18076;SDS011;9165;45.714;11.362;2024-02-21T01:44:41;14.93;;;9.43;;
18076;SDS011;9165;45.714;11.362;2024-02-21T01:47:07;15.63;;;8.83;;
18076;SDS011;9165;45.714;11.362;2024-02-21T01:49:34;16.63;;;8.10;;
18076;SDS011;9165;45.714;11.362;2024-02-21T01:52:01;14.87;;;8.90;;
18076;SDS011;9165;45.714;11.362;2024-02-21T01:54:28;14.30;;;7.50;;
18076;SDS011;9165;45.714;11.362;2024-02-21T01:56:56;13.27;;;7.50;;
18076;SDS011;9165;45.714;11.362;2024-02-21T01:59:23;14.00;;;7.80;;
18076;SDS011;9165;45.714;11.362;2024-02-21T02:01:50;11.20;;;7.07;;
18076;SDS011;9165;45.714;11.362;2024-02-21T02:04:17;11.93;;;7.10;;
18076;SDS011;9165;45.714;11.362;2024-02-21T02:06:45;15.27;;;7.50;;
18076;SDS011;9165;45.714;11.362;2024-02-21T02:09:11;10.47;;;6.80;;
18076;SDS011;9165;45.714;11.362;2024-02-21T02:11:38;18.43;;;7.77;;
18076;SDS011;9165;45.714;11.362;2024-02-21T02:14:07;14.73;;;7.63;;
18076;SDS011;9165;45.714;11.362;2024-02-21T02:16:33;13.07;;;7.43;;
18076;SDS011;9165;45.714;11.362;2024-02-21T02:19:00;13.87;;;7.37;;
18076;SDS011;9165;45.714;11.362;2024-02-21T02:21:27;13.13;;;6.57;;
18076;SDS011;9165;45.714;11.362;2024-02-21T02:23:56;15.10;;;7.73;;
18076;SDS011;9165;45.714;11.362;2024-02-21T02:26:23;10.70;;;7.00;;
18076;SDS011;9165;45.714;11.362;2024-02-21T02:28:50;9.83;;;6.23;;
18076;SDS011;9165;45.714;11.362;2024-02-21T02:31:16;11.23;;;6.77;;
18076;SDS011;9165;45.714;11.362;2024-02-21T02:33:43;9.80;;;6.90;;
18076;SDS011;9165;45.714;11.362;2024-02-21T02:36:10;11.90;;;6.53;;
18076;SDS011;9165;45.714;11.362;2024-02-21T02:38:37;8.53;;;5.67;;
18076;SDS011;9165;45.714;11.362;2024-02-21T02:41:05;8.93;;;5.73;;
18076;SDS011;9165;45.714;11.362;2024-02-21T02:43:31;11.07;;;6.17;;
18076;SDS011;9165;45.714;11.362;2024-02-21T02:45:58;9.17;;;5.33;;
18076;SDS011;9165;45.714;11.362;2024-02-21T02:48:24;10.47;;;6.10;;
18076;SDS011;9165;45.714;11.362;2024-02-21T02:50:51;8.50;;;5.63;;
18076;SDS011;9165;45.714;11.362;2024-02-21T02:53:17;9.20;;;5.40;;
18076;SDS011;9165;45.714;11.362;2024-02-21T02:55:44;9.23;;;5.87;;
18076;SDS011;9165;45.714;11.362;2024-02-21T02:58:12;9.10;;;5.70;;
18076;SDS011;9165;45.714;11.362;2024-02-21T03:00:39;8.97;;;5.30;;
18076;SDS011;9165;45.714;11.362;2024-02-21T03:03:05;7.13;;;4.87;;
18076;SDS011;9165;45.714;11.362;2024-02-21T03:05:33;9.40;;;5.23;;
18076;SDS011;9165;45.714;11.362;2024-02-21T03:08:00;8.43;;;5.23;;
18076;SDS011;9165;45.714;11.362;2024-02-21T03:10:26;10.20;;;5.43;;
18076;SDS011;9165;45.714;11.362;2024-02-21T03:12:53;6.60;;;5.13;;
18076;SDS011;9165;45.714;11.362;2024-02-21T03:15:21;5.87;;;4.40;;
18076;SDS011;9165;45.714;11.362;2024-02-21T03:17:48;6.90;;;4.83;;
18076;SDS011;9165;45.714;11.362;2024-02-21T03:20:14;7.27;;;4.40;;
18076;SDS011;9165;45.714;11.362;2024-02-21T03:22:41;5.23;;;3.90;;
18076;SDS011;9165;45.714;11.362;2024-02-21T03:25:08;7.77;;;4.47;;
18076;SDS011;9165;45.714;11.362;2024-02-21T03:27:34;6.60;;;4.37;;
18076;SDS011;9165;45.714;11.362;2024-02-21T03:30:01;6.07;;;3.87;;
18076;SDS011;9165;45.714;11.362;2024-02-21T03:32:31;6.77;;;4.17;;
18076;SDS011;9165;45.714;11.362;2024-02-21T03:34:57;5.50;;;3.77;;
18076;SDS011;9165;45.714;11.362;2024-02-21T03:37:24;5.87;;;4.20;;
18076;SDS011;9165;45.714;11.362;2024-02-21T03:39:50;4.63;;;3.53;;
18076;SDS011;9165;45.714;11.362;2024-02-21T03:42:17;9.93;;;4.07;;
18076;SDS011;9165;45.714;11.362;2024-02-21T03:44:44;6.73;;;3.97;;
18076;SDS011;9165;45.714;11.362;2024-02-21T03:47:10;6.20;;;3.40;;
18076;SDS011;9165;45.714;11.362;2024-02-21T03:49:38;4.40;;;3.50;;
18076;SDS011;9165;45.714;11.362;2024-02-21T03:52:05;5.30;;;3.57;;
18076;SDS011;9165;45.714;11.362;2024-02-21T03:54:31;5.57;;;3.63;;
18076;SDS011;9165;45.714;11.362;2024-02-21T03:56:58;5.90;;;4.20;;
18076;SDS011;9165;45.714;11.362;2024-02-21T03:59:25;7.80;;;4.60;;
18076;SDS011;9165;45.714;11.362;2024-02-21T04:01:51;5.50;;;3.93;;
18076;SDS011;9165;45.714;11.362;2024-02-21T04:04:18;6.87;;;3.97;;
18076;SDS011;9165;45.714;11.362;2024-02-21T04:06:49;7.40;;;4.33;;
18076;SDS011;9165;45.714;11.362;2024-02-21T04:09:16;5.77;;;3.90;;
18076;SDS011;9165;45.714;11.362;2024-02-21T04:11:43;7.73;;;4.27;;
18076;SDS011;9165;45.714;11.362;2024-02-21T04:14:09;6.53;;;4.17;;
18076;SDS011;9165;45.714;11.362;2024-02-21T04:16:37;8.73;;;4.00;;
18076;SDS011;9165;45.714;11.362;2024-02-21T04:19:04;5.60;;;4.03;;
18076;SDS011;9165;45.714;11.362;2024-02-21T04:21:30;4.67;;;3.80;;
18076;SDS011;9165;45.714;11.362;2024-02-21T04:23:58;7.57;;;4.00;;
18076;SDS011;9165;45.714;11.362;2024-02-21T04:26:25;5.07;;;3.90;;
18076;SDS011;9165;45.714;11.362;2024-02-21T04:28:51;6.83;;;4.53;;
18076;SDS011;9165;45.714;11.362;2024-02-21T04:31:18;7.60;;;4.40;;
18076;SDS011;9165;45.714;11.362;2024-02-21T04:33:44;8.00;;;4.60;;
18076;SDS011;9165;45.714;11.362;2024-02-21T04:36:11;6.57;;;4.10;;
18076;SDS011;9165;45.714;11.362;2024-02-21T04:38:38;6.43;;;4.10;;
18076;SDS011;9165;45.714;11.362;2024-02-21T04:41:06;6.20;;;4.20;;
18076;SDS011;9165;45.714;11.362;2024-02-21T04:43:33;6.10;;;4.30;;
18076;SDS011;9165;45.714;11.362;2024-02-21T04:45:59;5.63;;;4.30;;
18076;SDS011;9165;45.714;11.362;2024-02-21T04:48:26;6.33;;;4.60;;
18076;SDS011;9165;45.714;11.362;2024-02-21T04:50:53;10.37;;;5.20;;
18076;SDS011;9165;45.714;11.362;2024-02-21T04:53:19;7.47;;;4.70;;
18076;SDS011;9165;45.714;11.362;2024-02-21T04:55:46;7.13;;;4.47;;
18076;SDS011;9165;45.714;11.362;2024-02-21T04:58:15;6.40;;;4.83;;
18076;SDS011;9165;45.714;11.362;2024-02-21T05:00:43;8.53;;;4.60;;
18076;SDS011;9165;45.714;11.362;2024-02-21T05:03:13;8.37;;;5.20;;
18076;SDS011;9165;45.714;11.362;2024-02-21T05:05:43;7.33;;;4.50;;
18076;SDS011;9165;45.714;11.362;2024-02-21T05:08:09;7.27;;;4.73;;
18076;SDS011;9165;45.714;11.362;2024-02-21T05:10:36;6.60;;;4.33;;
18076;SDS011;9165;45.714;11.362;2024-02-21T05:13:03;8.03;;;5.20;;
18076;SDS011;9165;45.714;11.362;2024-02-21T05:15:31;6.90;;;4.13;;
18076;SDS011;9165;45.714;11.362;2024-02-21T05:17:58;6.40;;;4.53;;
18076;SDS011;9165;45.714;11.362;2024-02-21T05:20:25;6.63;;;4.13;;
18076;SDS011;9165;45.714;11.362;2024-02-21T05:22:51;7.33;;;4.70;;
18076;SDS011;9165;45.714;11.362;2024-02-21T05:25:18;9.23;;;5.47;;
18076;SDS011;9165;45.714;11.362;2024-02-21T05:27:50;11.77;;;5.43;;
18076;SDS011;9165;45.714;11.362;2024-02-21T05:30:18;8.73;;;5.63;;
18076;SDS011;9165;45.714;11.362;2024-02-21T05:32:46;7.43;;;4.70;;
18076;SDS011;9165;45.714;11.362;2024-02-21T05:35:13;10.67;;;6.00;;
18076;SDS011;9165;45.714;11.362;2024-02-21T05:37:39;10.03;;;5.57;;
18076;SDS011;9165;45.714;11.362;2024-02-21T05:40:06;8.70;;;5.47;;
18076;SDS011;9165;45.714;11.362;2024-02-21T05:42:33;10.03;;;5.50;;
18076;SDS011;9165;45.714;11.362;2024-02-21T05:45:00;8.23;;;5.57;;
18076;SDS011;9165;45.714;11.362;2024-02-21T05:47:26;12.13;;;5.67;;
18076;SDS011;9165;45.714;11.362;2024-02-21T05:49:54;8.47;;;5.60;;
18076;SDS011;9165;45.714;11.362;2024-02-21T05:52:21;9.83;;;6.10;;
18076;SDS011;9165;45.714;11.362;2024-02-21T05:54:48;11.60;;;5.33;;
18076;SDS011;9165;45.714;11.362;2024-02-21T05:57:16;7.13;;;5.03;;
18076;SDS011;9165;45.714;11.362;2024-02-21T05:59:46;10.70;;;5.93;;
18076;SDS011;9165;45.714;11.362;2024-02-21T06:02:58;9.63;;;5.10;;
18076;SDS011;9165;45.714;11.362;2024-02-21T06:05:29;10.13;;;6.03;;
18076;SDS011;9165;45.714;11.362;2024-02-21T06:08:12;8.73;;;5.50;;
18076;SDS011;9165;45.714;11.362;2024-02-21T06:10:50;10.53;;;6.07;;
18076;SDS011;9165;45.714;11.362;2024-02-21T06:13:19;8.33;;;5.30;;
18076;SDS011;9165;45.714;11.362;2024-02-21T06:15:46;9.97;;;6.03;;
18076;SDS011;9165;45.714;11.362;2024-02-21T06:18:17;11.80;;;6.07;;
18076;SDS011;9165;45.714;11.362;2024-02-21T06:20:55;8.07;;;5.67;;
18076;SDS011;9165;45.714;11.362;2024-02-21T06:27:05;10.17;;;6.27;;
18076;SDS011;9165;45.714;11.362;2024-02-21T06:32:53;10.43;;;6.63;;
18076;SDS011;9165;45.714;11.362;2024-02-21T06:35:39;9.90;;;6.23;;
18076;SDS011;9165;45.714;11.362;2024-02-21T06:38:10;11.50;;;6.40;;
18076;SDS011;9165;45.714;11.362;2024-02-21T06:43:53;9.67;;;6.80;;
18076;SDS011;9165;45.714;11.362;2024-02-21T06:46:24;11.17;;;7.57;;
18076;SDS011;9165;45.714;11.362;2024-02-21T06:48:54;12.07;;;7.33;;
18076;SDS011;9165;45.714;11.362;2024-02-21T06:51:26;11.90;;;7.60;;
18076;SDS011;9165;45.714;11.362;2024-02-21T06:53:55;12.87;;;7.23;;
18076;SDS011;9165;45.714;11.362;2024-02-21T06:56:23;11.03;;;7.20;;
18076;SDS011;9165;45.714;11.362;2024-02-21T06:59:22;10.50;;;6.77;;
18076;SDS011;9165;45.714;11.362;2024-02-21T07:01:53;14.97;;;6.67;;
18076;SDS011;9165;45.714;11.362;2024-02-21T07:04:23;10.13;;;6.57;;
18076;SDS011;9165;45.714;11.362;2024-02-21T07:06:50;13.30;;;6.90;;
18076;SDS011;9165;45.714;11.362;2024-02-21T07:09:18;17.73;;;7.40;;
18076;SDS011;9165;45.714;11.362;2024-02-21T07:11:50;10.20;;;6.90;;
18076;SDS011;9165;45.714;11.362;2024-02-21T07:14:27;12.87;;;7.90;;
18076;SDS011;9165;45.714;11.362;2024-02-21T07:19:43;11.83;;;7.23;;
18076;SDS011;9165;45.714;11.362;2024-02-21T07:22:10;13.73;;;8.10;;
18076;SDS011;9165;45.714;11.362;2024-02-21T07:24:38;11.93;;;7.63;;
18076;SDS011;9165;45.714;11.362;2024-02-21T07:27:05;13.97;;;7.77;;
18076;SDS011;9165;45.714;11.362;2024-02-21T07:29:32;13.93;;;7.57;;
18076;SDS011;9165;45.714;11.362;2024-02-21T07:31:59;11.43;;;7.70;;
18076;SDS011;9165;45.714;11.362;2024-02-21T07:34:26;12.30;;;9.23;;
18076;SDS011;9165;45.714;11.362;2024-02-21T07:36:52;14.80;;;8.00;;
18076;SDS011;9165;45.714;11.362;2024-02-21T07:39:20;11.43;;;7.13;;
18076;SDS011;9165;45.714;11.362;2024-02-21T07:41:48;15.10;;;7.93;;
18076;SDS011;9165;45.714;11.362;2024-02-21T07:44:15;12.37;;;8.77;;
18076;SDS011;9165;45.714;11.362;2024-02-21T07:46:41;13.50;;;8.03;;
18076;SDS011;9165;45.714;11.362;2024-02-21T07:49:08;13.30;;;7.70;;
18076;SDS011;9165;45.714;11.362;2024-02-21T07:51:35;12.73;;;7.97;;
18076;SDS011;9165;45.714;11.362;2024-02-21T07:54:01;12.90;;;7.73;;
18076;SDS011;9165;45.714;11.362;2024-02-21T07:56:29;13.43;;;9.13;;
18076;SDS011;9165;45.714;11.362;2024-02-21T07:58:59;12.47;;;7.63;;
18076;SDS011;9165;45.714;11.362;2024-02-21T08:01:26;14.07;;;7.97;;
18076;SDS011;9165;45.714;11.362;2024-02-21T08:03:52;13.07;;;8.47;;
18076;SDS011;9165;45.714;11.362;2024-02-21T08:06:19;13.20;;;8.67;;
18076;SDS011;9165;45.714;11.362;2024-02-21T08:08:45;13.80;;;8.90;;
18076;SDS011;9165;45.714;11.362;2024-02-21T08:11:12;14.73;;;9.50;;
18076;SDS011;9165;45.714;11.362;2024-02-21T08:13:39;13.60;;;8.83;;
18076;SDS011;9165;45.714;11.362;2024-02-21T08:16:07;25.40;;;9.87;;
18076;SDS011;9165;45.714;11.362;2024-02-21T08:18:34;15.90;;;9.03;;
18076;SDS011;9165;45.714;11.362;2024-02-21T08:21:03;11.17;;;7.63;;
18076;SDS011;9165;45.714;11.362;2024-02-21T08:23:30;15.73;;;9.27;;
18076;SDS011;9165;45.714;11.362;2024-02-21T08:25:56;14.60;;;9.07;;
18076;SDS011;9165;45.714;11.362;2024-02-21T08:28:23;19.13;;;9.67;;
18076;SDS011;9165;45.714;11.362;2024-02-21T08:30:50;16.37;;;8.70;;
18076;SDS011;9165;45.714;11.362;2024-02-21T08:33:18;20.07;;;9.33;;
18076;SDS011;9165;45.714;11.362;2024-02-21T08:35:49;15.43;;;9.47;;
18076;SDS011;9165;45.714;11.362;2024-02-21T08:38:16;13.63;;;8.50;;
18076;SDS011;9165;45.714;11.362;2024-02-21T08:40:43;17.37;;;10.93;;
18076;SDS011;9165;45.714;11.362;2024-02-21T08:43:10;30.77;;;16.23;;
18076;SDS011;9165;45.714;11.362;2024-02-21T08:45:37;30.83;;;16.73;;
18076;SDS011;9165;45.714;11.362;2024-02-21T08:48:04;17.77;;;9.67;;
18076;SDS011;9165;45.714;11.362;2024-02-21T08:50:32;16.70;;;9.87;;
18076;SDS011;9165;45.714;11.362;2024-02-21T08:52:58;19.37;;;11.10;;
18076;SDS011;9165;45.714;11.362;2024-02-21T08:55:25;14.07;;;9.87;;
18076;SDS011;9165;45.714;11.362;2024-02-21T08:57:51;17.00;;;10.30;;
18076;SDS011;9165;45.714;11.362;2024-02-21T09:00:18;15.90;;;9.13;;
18076;SDS011;9165;45.714;11.362;2024-02-21T09:02:49;18.43;;;10.57;;
18076;SDS011;9165;45.714;11.362;2024-02-21T09:05:15;14.20;;;7.90;;
18076;SDS011;9165;45.714;11.362;2024-02-21T09:07:43;12.00;;;7.30;;
18076;SDS011;9165;45.714;11.362;2024-02-21T09:10:10;77.27;;;14.80;;
18076;SDS011;9165;45.714;11.362;2024-02-21T09:12:37;17.50;;;7.80;;
18076;SDS011;9165;45.714;11.362;2024-02-21T09:15:04;12.63;;;7.17;;
18076;SDS011;9165;45.714;11.362;2024-02-21T09:17:31;40.90;;;9.77;;
18076;SDS011;9165;45.714;11.362;2024-02-21T09:19:57;71.40;;;13.13;;
18076;SDS011;9165;45.714;11.362;2024-02-21T09:22:28;118.13;;;19.90;;
18076;SDS011;9165;45.714;11.362;2024-02-21T09:24:58;47.57;;;10.27;;
18076;SDS011;9165;45.714;11.362;2024-02-21T09:27:25;11.87;;;6.73;;
18076;SDS011;9165;45.714;11.362;2024-02-21T09:29:51;16.40;;;7.80;;
18076;SDS011;9165;45.714;11.362;2024-02-21T09:32:18;13.43;;;7.30;;
18076;SDS011;9165;45.714;11.362;2024-02-21T09:34:45;12.43;;;7.50;;
18076;SDS011;9165;45.714;11.362;2024-02-21T09:37:11;11.63;;;7.37;;
18076;SDS011;9165;45.714;11.362;2024-02-21T09:39:38;9.03;;;6.40;;
18076;SDS011;9165;45.714;11.362;2024-02-21T09:42:13;8.40;;;5.27;;
18076;SDS011;9165;45.714;11.362;2024-02-21T09:44:40;13.20;;;6.17;;
18076;SDS011;9165;45.714;11.362;2024-02-21T09:47:09;15.00;;;5.33;;
18076;SDS011;9165;45.714;11.362;2024-02-21T09:49:37;6.93;;;5.07;;
18076;SDS011;9165;45.714;11.362;2024-02-21T09:52:04;15.97;;;5.30;;
18076;SDS011;9165;45.714;11.362;2024-02-21T09:54:32;7.07;;;5.23;;
18076;SDS011;9165;45.714;11.362;2024-02-21T09:56:59;9.60;;;5.20;;
18076;SDS011;9165;45.714;11.362;2024-02-21T09:59:27;9.33;;;5.77;;
18076;SDS011;9165;45.714;11.362;2024-02-21T10:01:54;12.10;;;6.83;;
18076;SDS011;9165;45.714;11.362;2024-02-21T10:04:20;13.90;;;7.50;;
18076;SDS011;9165;45.714;11.362;2024-02-21T10:06:47;14.33;;;8.30;;
18076;SDS011;9165;45.714;11.362;2024-02-21T10:09:21;15.43;;;10.37;;
18076;SDS011;9165;45.714;11.362;2024-02-21T10:11:48;14.80;;;8.53;;
18076;SDS011;9165;45.714;11.362;2024-02-21T10:14:15;15.67;;;8.30;;
18076;SDS011;9165;45.714;11.362;2024-02-21T10:16:45;14.60;;;8.83;;
18076;SDS011;9165;45.714;11.362;2024-02-21T10:19:17;17.80;;;9.10;;
18076;SDS011;9165;45.714;11.362;2024-02-21T10:21:45;18.27;;;9.90;;
18076;SDS011;9165;45.714;11.362;2024-02-21T10:24:26;15.40;;;8.97;;
18076;SDS011;9165;45.714;11.362;2024-02-21T10:26:58;13.77;;;8.43;;
18076;SDS011;9165;45.714;11.362;2024-02-21T10:29:25;18.10;;;9.23;;
18076;SDS011;9165;45.714;11.362;2024-02-21T10:31:53;26.97;;;11.33;;
18076;SDS011;9165;45.714;11.362;2024-02-21T10:34:29;66.00;;;18.50;;
18076;SDS011;9165;45.714;11.362;2024-02-21T10:36:59;16.83;;;10.23;;
18076;SDS011;9165;45.714;11.362;2024-02-21T10:39:25;37.47;;;13.00;;
18076;SDS011;9165;45.714;11.362;2024-02-21T10:41:52;16.20;;;10.53;;
18076;SDS011;9165;45.714;11.362;2024-02-21T10:44:19;18.07;;;10.20;;
18076;SDS011;9165;45.714;11.362;2024-02-21T10:46:47;17.70;;;11.30;;
18076;SDS011;9165;45.714;11.362;2024-02-21T10:49:16;17.53;;;11.13;;
18076;SDS011;9165;45.714;11.362;2024-02-21T10:51:47;16.43;;;10.63;;
18076;SDS011;9165;45.714;11.362;2024-02-21T10:54:18;17.13;;;10.53;;
18076;SDS011;9165;45.714;11.362;2024-02-21T10:56:50;17.90;;;11.23;;
18076;SDS011;9165;45.714;11.362;2024-02-21T10:59:17;17.33;;;11.73;;
18076;SDS011;9165;45.714;11.362;2024-02-21T11:01:44;18.33;;;11.63;;
18076;SDS011;9165;45.714;11.362;2024-02-21T11:04:11;15.73;;;11.17;;
18076;SDS011;9165;45.714;11.362;2024-02-21T11:06:40;15.87;;;10.47;;
18076;SDS011;9165;45.714;11.362;2024-02-21T11:09:07;15.40;;;10.53;;
18076;SDS011;9165;45.714;11.362;2024-02-21T11:11:34;24.13;;;11.17;;
18076;SDS011;9165;45.714;11.362;2024-02-21T11:14:04;18.33;;;10.37;;
18076;SDS011;9165;45.714;11.362;2024-02-21T11:16:35;16.77;;;11.40;;
18076;SDS011;9165;45.714;11.362;2024-02-21T11:19:04;20.20;;;12.67;;
18076;SDS011;9165;45.714;11.362;2024-02-21T11:21:32;17.77;;;11.53;;
18076;SDS011;9165;45.714;11.362;2024-02-21T11:24:01;16.50;;;12.23;;
18076;SDS011;9165;45.714;11.362;2024-02-21T11:26:28;15.70;;;10.70;;
18076;SDS011;9165;45.714;11.362;2024-02-21T11:28:58;18.63;;;11.70;;
18076;SDS011;9165;45.714;11.362;2024-02-21T11:31:24;16.87;;;11.07;;
18076;SDS011;9165;45.714;11.362;2024-02-21T11:33:52;16.43;;;13.20;;
18076;SDS011;9165;45.714;11.362;2024-02-21T11:36:23;18.27;;;14.43;;
18076;SDS011;9165;45.714;11.362;2024-02-21T11:38:49;23.20;;;15.97;;
18076;SDS011;9165;45.714;11.362;2024-02-21T11:41:18;24.30;;;14.90;;
18076;SDS011;9165;45.714;11.362;2024-02-21T11:43:46;26.60;;;16.60;;
18076;SDS011;9165;45.714;11.362;2024-02-21T11:46:12;22.83;;;16.87;;
18076;SDS011;9165;45.714;11.362;2024-02-21T11:48:40;24.37;;;16.10;;
18076;SDS011;9165;45.714;11.362;2024-02-21T11:51:08;23.83;;;15.57;;
18076;SDS011;9165;45.714;11.362;2024-02-21T11:53:34;21.40;;;13.90;;
18076;SDS011;9165;45.714;11.362;2024-02-21T11:56:01;23.60;;;14.57;;
18076;SDS011;9165;45.714;11.362;2024-02-21T11:58:29;24.97;;;15.77;;
18076;SDS011;9165;45.714;11.362;2024-02-21T12:00:56;22.43;;;13.60;;
18076;SDS011;9165;45.714;11.362;2024-02-21T12:03:23;19.43;;;13.10;;
18076;SDS011;9165;45.714;11.362;2024-02-21T12:05:50;17.93;;;12.93;;
18076;SDS011;9165;45.714;11.362;2024-02-21T12:08:17;16.67;;;12.83;;
18076;SDS011;9165;45.714;11.362;2024-02-21T12:10:45;18.97;;;12.47;;
18076;SDS011;9165;45.714;11.362;2024-02-21T12:13:16;18.90;;;13.50;;
18076;SDS011;9165;45.714;11.362;2024-02-21T12:15:47;25.47;;;12.00;;
18076;SDS011;9165;45.714;11.362;2024-02-21T12:18:13;16.80;;;13.07;;
18076;SDS011;9165;45.714;11.362;2024-02-21T12:20:40;19.87;;;12.73;;
18076;SDS011;9165;45.714;11.362;2024-02-21T12:23:08;19.87;;;14.77;;
18076;SDS011;9165;45.714;11.362;2024-02-21T12:25:35;20.90;;;15.20;;
18076;SDS011;9165;45.714;11.362;2024-02-21T12:28:02;21.17;;;13.67;;
18076;SDS011;9165;45.714;11.362;2024-02-21T12:30:29;20.30;;;15.27;;
18076;SDS011;9165;45.714;11.362;2024-02-21T12:32:59;22.47;;;15.53;;
18076;SDS011;9165;45.714;11.362;2024-02-21T12:35:26;24.27;;;17.10;;
18076;SDS011;9165;45.714;11.362;2024-02-21T12:37:53;23.87;;;17.17;;
18076;SDS011;9165;45.714;11.362;2024-02-21T12:40:20;24.23;;;17.10;;
18076;SDS011;9165;45.714;11.362;2024-02-21T12:42:46;24.97;;;17.10;;
18076;SDS011;9165;45.714;11.362;2024-02-21T12:45:13;26.03;;;17.53;;
18076;SDS011;9165;45.714;11.362;2024-02-21T12:47:42;27.23;;;17.47;;
18076;SDS011;9165;45.714;11.362;2024-02-21T12:50:10;27.57;;;18.63;;
18076;SDS011;9165;45.714;11.362;2024-02-21T12:52:36;28.60;;;18.67;;
18076;SDS011;9165;45.714;11.362;2024-02-21T12:55:03;29.73;;;19.37;;
18076;SDS011;9165;45.714;11.362;2024-02-21T12:57:30;29.83;;;18.90;;
18076;SDS011;9165;45.714;11.362;2024-02-21T12:59:57;28.87;;;19.97;;
18076;SDS011;9165;45.714;11.362;2024-02-21T13:02:23;31.97;;;20.30;;
18076;SDS011;9165;45.714;11.362;2024-02-21T13:04:50;25.23;;;18.93;;
18076;SDS011;9165;45.714;11.362;2024-02-21T13:07:17;40.70;;;21.70;;
18076;SDS011;9165;45.714;11.362;2024-02-21T13:09:44;33.20;;;21.80;;
18076;SDS011;9165;45.714;11.362;2024-02-21T13:12:11;33.40;;;19.83;;
18076;SDS011;9165;45.714;11.362;2024-02-21T13:14:37;31.77;;;19.93;;
18076;SDS011;9165;45.714;11.362;2024-02-21T13:17:04;32.97;;;21.67;;
18076;SDS011;9165;45.714;11.362;2024-02-21T13:19:31;30.70;;;20.43;;
18076;SDS011;9165;45.714;11.362;2024-02-21T13:21:57;31.20;;;21.43;;
18076;SDS011;9165;45.714;11.362;2024-02-21T13:24:25;30.20;;;21.90;;
18076;SDS011;9165;45.714;11.362;2024-02-21T13:26:52;34.40;;;21.87;;
18076;SDS011;9165;45.714;11.362;2024-02-21T13:29:19;34.37;;;23.53;;
18076;SDS011;9165;45.714;11.362;2024-02-21T13:31:46;40.77;;;25.23;;
18076;SDS011;9165;45.714;11.362;2024-02-21T13:34:13;37.70;;;24.57;;
18076;SDS011;9165;45.714;11.362;2024-02-21T13:36:40;33.37;;;22.70;;
18076;SDS011;9165;45.714;11.362;2024-02-21T13:39:06;39.93;;;26.03;;
18076;SDS011;9165;45.714;11.362;2024-02-21T13:41:39;46.77;;;25.27;;
18076;SDS011;9165;45.714;11.362;2024-02-21T13:44:06;38.80;;;25.30;;
18076;SDS011;9165;45.714;11.362;2024-02-21T13:46:32;45.30;;;27.50;;
18076;SDS011;9165;45.714;11.362;2024-02-21T13:49:02;43.33;;;27.47;;
18076;SDS011;9165;45.714;11.362;2024-02-21T13:51:29;53.27;;;30.77;;
18076;SDS011;9165;45.714;11.362;2024-02-21T13:53:56;40.53;;;25.93;;
18076;SDS011;9165;45.714;11.362;2024-02-21T13:56:22;45.07;;;26.37;;
18076;SDS011;9165;45.714;11.362;2024-02-21T13:58:51;45.90;;;26.50;;
18076;SDS011;9165;45.714;11.362;2024-02-21T14:01:17;39.13;;;25.53;;
18076;SDS011;9165;45.714;11.362;2024-02-21T14:03:44;43.70;;;24.97;;
18076;SDS011;9165;45.714;11.362;2024-02-21T14:06:11;38.47;;;25.13;;
18076;SDS011;9165;45.714;11.362;2024-02-21T14:08:37;49.43;;;27.57;;
18076;SDS011;9165;45.714;11.362;2024-02-21T14:11:04;38.53;;;23.67;;
18076;SDS011;9165;45.714;11.362;2024-02-21T14:13:31;35.63;;;24.20;;
18076;SDS011;9165;45.714;11.362;2024-02-21T14:15:59;39.57;;;25.20;;
18076;SDS011;9165;45.714;11.362;2024-02-21T14:18:26;39.07;;;24.27;;
18076;SDS011;9165;45.714;11.362;2024-02-21T14:20:53;38.23;;;23.63;;
18076;SDS011;9165;45.714;11.362;2024-02-21T14:23:19;36.23;;;24.13;;
18076;SDS011;9165;45.714;11.362;2024-02-21T14:25:46;38.07;;;23.93;;
18076;SDS011;9165;45.714;11.362;2024-02-21T14:28:13;42.17;;;24.70;;
18076;SDS011;9165;45.714;11.362;2024-02-21T14:30:43;37.73;;;24.17;;
18076;SDS011;9165;45.714;11.362;2024-02-21T14:33:11;35.47;;;23.80;;
18076;SDS011;9165;45.714;11.362;2024-02-21T14:35:37;38.17;;;23.63;;
18076;SDS011;9165;45.714;11.362;2024-02-21T14:38:04;38.40;;;23.53;;
18076;SDS011;9165;45.714;11.362;2024-02-21T14:40:31;36.83;;;24.20;;
18076;SDS011;9165;45.714;11.362;2024-02-21T14:42:59;33.60;;;22.70;;
18076;SDS011;9165;45.714;11.362;2024-02-21T14:45:26;37.30;;;23.57;;
18076;SDS011;9165;45.714;11.362;2024-02-21T14:47:52;44.63;;;24.57;;
18076;SDS011;9165;45.714;11.362;2024-02-21T14:50:21;40.80;;;25.83;;